Time;durP1;ratioP1;P1;durP2;ratioP2;P2;SDS_P1;SDS_P2;PMS_P1;PMS_P2;Temp;Humidity;BMP_temperature;BMP_pressure;BME280_temperature;BME280_humidity;BME280_pressure;Samples;Min_cycle;Max_cycle;Signal;HPM_P1;HPM_P2
2022/04/07 00:00:21;;;;;;;;;0.50;0.25;;;;;17.05;54.69;99671.69;5085530;28;62418;-78
2022/04/07 00:02:47;;;;;;;;;0.00;0.00;;;;;17.04;54.64;99665.53;5085440;28;61719;-78
2022/04/07 00:05:12;;;;;;;;;1.25;1.25;;;;;17.02;54.45;99663.75;5100659;27;63829;-78
2022/04/07 00:07:38;;;;;;;;;0.00;0.00;;;;;17.04;54.39;99648.75;5085228;28;61969;-78
2022/04/07 00:10:04;;;;;;;;;0.00;0.00;;;;;17.14;54.28;99643.44;5085121;28;61807;-78
2022/04/07 00:12:32;;;;;;;;;0.00;0.00;;;;;17.13;53.99;99636.34;5085486;28;61884;-78
2022/04/07 00:14:59;;;;;;;;;0.75;0.75;;;;;17.11;53.94;99632.81;5085157;27;62495;-78
2022/04/07 00:17:25;;;;;;;;;0.00;0.00;;;;;17.16;53.99;99636.34;5085259;28;61714;-78
2022/04/07 00:19:51;;;;;;;;;0.75;0.00;;;;;17.11;53.91;99651.38;5085551;28;61905;-78
2022/04/07 00:22:17;;;;;;;;;1.00;1.00;;;;;17.11;53.73;99653.16;5083828;28;61805;-78
2022/04/07 00:24:43;;;;;;;;;0.50;0.50;;;;;17.10;54.10;99632.84;5084421;28;61903;-78
2022/04/07 00:27:09;;;;;;;;;2.00;0.00;;;;;17.16;53.76;99630.19;5084850;28;61789;-78
2022/04/07 00:29:34;;;;;;;;;3.00;0.50;;;;;17.09;53.88;99639.00;5085261;28;62116;-78
2022/04/07 00:32:03;;;;;;;;;2.00;0.50;;;;;17.11;54.05;99611.59;5085413;28;61858;-78
2022/04/07 00:34:29;;;;;;;;;0.50;0.50;;;;;17.13;53.56;99617.78;5084600;27;61779;-78
2022/04/07 00:36:55;;;;;;;;;1.00;0.00;;;;;17.01;53.75;99612.50;5085289;28;61821;-78
2022/04/07 00:39:21;;;;;;;;;1.50;0.50;;;;;17.04;53.63;99606.31;5084267;27;61719;-78
2022/04/07 00:41:46;;;;;;;;;0.00;0.00;;;;;17.06;53.65;99618.69;5085136;28;62030;-78
2022/04/07 00:44:12;;;;;;;;;1.00;0.00;;;;;17.10;53.63;99603.66;5082632;28;63717;-78
2022/04/07 00:46:38;;;;;;;;;0.75;0.00;;;;;17.11;53.70;99601.00;5084895;27;61908;-78
2022/04/07 00:49:05;;;;;;;;;2.00;0.50;;;;;17.15;53.38;99593.91;5083723;28;62106;-78
2022/04/07 00:51:31;;;;;;;;;0.00;0.00;;;;;17.14;53.33;99587.75;5083834;28;62007;-78
2022/04/07 00:53:57;;;;;;;;;0.50;0.50;;;;;17.18;53.11;99570.03;5084103;28;61797;-78
2022/04/07 00:56:24;;;;;;;;;2.25;1.00;;;;;17.26;53.25;99564.72;5082851;28;61952;-78
2022/04/07 00:58:50;;;;;;;;;2.25;1.00;;;;;17.27;53.03;99561.22;5084843;28;61912;-78
2022/04/07 01:01:20;;;;;;;;;2.00;1.25;;;;;17.23;53.04;99555.00;5084851;27;61699;-78
2022/04/07 01:03:47;;;;;;;;;1.00;1.00;;;;;17.14;53.44;99545.31;5083967;28;62315;-78
2022/04/07 01:06:12;;;;;;;;;2.50;1.00;;;;;17.24;53.24;99535.56;5082985;28;62498;-78
2022/04/07 01:08:38;;;;;;;;;0.00;0.00;;;;;17.24;53.15;99530.25;5084102;28;61768;-78
2022/04/07 01:11:04;;;;;;;;;3.00;0.00;;;;;17.26;52.82;99520.53;5084616;28;61895;-78
2022/04/07 01:14:01;;;;;;;;;2.00;0.00;;;;;17.28;53.01;99531.13;5083596;28;62799;-78
2022/04/07 01:16:28;;;;;;;;;1.75;1.00;;;;;17.22;53.14;99525.84;5061573;28;62107;-78
2022/04/07 01:18:56;;;;;;;;;1.25;1.00;;;;;17.26;53.32;99515.22;5078500;28;61883;-78
2022/04/07 01:21:22;;;;;;;;;1.00;0.50;;;;;17.17;53.66;99520.56;5061723;28;62189;-78
2022/04/07 01:24:08;;;;;;;;;1.00;0.00;;;;;17.22;55.05;99518.75;5060659;28;62055;-78
2022/04/07 01:26:41;;;;;;;;;2.00;1.00;;;;;17.20;55.95;99523.19;5061297;28;61819;-78
2022/04/07 01:29:09;;;;;;;;;0.25;0.25;;;;;17.23;56.40;99519.66;5061693;28;61945;-79
2022/04/07 01:31:35;;;;;;;;;1.00;0.00;;;;;17.14;56.24;99517.94;5061390;28;61809;-78
2022/04/07 01:34:02;;;;;;;;;1.00;1.00;;;;;16.91;56.64;99513.53;5060647;28;61910;-78
2022/04/07 01:36:31;;;;;;;;;2.00;0.75;;;;;17.05;56.24;99509.97;5061276;28;61923;-78
2022/04/07 01:38:58;;;;;;;;;2.25;1.00;;;;;17.03;56.30;99493.19;5060327;28;61898;-78
2022/04/07 01:41:27;;;;;;;;;3.25;1.00;;;;;17.03;55.93;99493.19;5061248;28;62064;-78
2022/04/07 01:43:58;;;;;;;;;1.00;1.00;;;;;17.11;55.46;99488.75;5060561;28;63039;-78
2022/04/07 01:46:24;;;;;;;;;2.50;1.00;;;;;17.11;55.17;99481.66;5061116;28;61980;-78
2022/04/07 01:48:51;;;;;;;;;2.00;0.75;;;;;17.03;55.32;99487.88;5077951;28;62032;-78
2022/04/07 01:51:18;;;;;;;;;1.00;1.00;;;;;17.07;55.16;99477.25;5061846;28;61914;-78
2022/04/07 01:53:44;;;;;;;;;1.00;1.00;;;;;17.09;55.18;99479.91;5062569;28;61840;-78
2022/04/07 01:56:10;;;;;;;;;1.00;0.50;;;;;17.03;55.22;99482.59;5063623;28;62029;-78
2022/04/07 01:58:36;;;;;;;;;4.50;0.50;;;;;16.99;55.44;99486.13;5063510;28;62237;-78
2022/04/07 02:01:03;;;;;;;;;1.00;0.25;;;;;16.95;55.97;99483.50;5063623;28;62065;-78
2022/04/07 02:03:29;;;;;;;;;3.50;2.00;;;;;16.88;57.05;99484.41;5062581;28;62147;-78
2022/04/07 02:05:54;;;;;;;;;0.00;0.00;;;;;17.00;56.92;99477.31;5062229;28;61762;-78
2022/04/07 02:08:20;;;;;;;;;2.25;1.00;;;;;17.02;57.01;99468.44;5062084;28;61957;-78
2022/04/07 02:10:45;;;;;;;;;0.75;0.75;;;;;16.96;56.74;99472.00;5062246;28;61840;-78
2022/04/07 02:13:10;;;;;;;;;0.00;0.00;;;;;17.07;56.68;99473.72;5061244;28;64892;-78
2022/04/07 02:15:36;;;;;;;;;1.25;0.25;;;;;17.09;56.32;99467.53;5061751;28;61757;-78
2022/04/07 02:18:02;;;;;;;;;1.00;1.00;;;;;17.11;56.47;99451.63;5063080;28;61974;-78
2022/04/07 02:20:27;;;;;;;;;0.00;0.00;;;;;17.08;56.39;99468.44;5061816;28;61833;-78
2022/04/07 02:22:53;;;;;;;;;0.50;0.50;;;;;17.07;56.46;99453.41;5061904;28;61982;-78
2022/04/07 02:25:22;;;;;;;;;1.50;0.50;;;;;17.13;56.40;99457.81;5063183;28;61970;-78
2022/04/07 02:27:49;;;;;;;;;1.00;0.00;;;;;17.13;57.44;99433.94;5062910;28;61807;-78
2022/04/07 02:30:14;;;;;;;;;2.00;0.00;;;;;17.10;59.86;99429.53;5061834;28;61803;-78
2022/04/07 02:32:41;;;;;;;;;2.00;2.00;;;;;17.08;60.66;99426.00;5094939;27;63831;-78
2022/04/07 02:35:09;;;;;;;;;2.00;2.00;;;;;16.95;61.77;99411.06;5062950;28;61783;-78
2022/04/07 02:37:34;;;;;;;;;1.25;1.00;;;;;16.83;64.04;99414.59;5067175;27;62640;-78
2022/04/07 02:40:01;;;;;;;;;7.75;1.50;;;;;16.77;64.98;99394.28;5082751;28;61971;-78
2022/04/07 02:42:26;;;;;;;;;1.00;1.00;;;;;16.75;64.47;99393.41;5082574;27;61995;-78
2022/04/07 02:44:51;;;;;;;;;2.00;1.00;;;;;16.71;63.95;99388.09;5081699;28;61962;-78
2022/04/07 02:47:17;;;;;;;;;2.25;1.00;;;;;16.61;63.62;99384.63;5081764;28;61810;-78
2022/04/07 02:49:43;;;;;;;;;0.25;0.25;;;;;16.61;64.47;99381.09;5083028;28;62304;-78
2022/04/07 02:52:09;;;;;;;;;1.75;1.00;;;;;16.61;64.03;99376.66;5080789;28;65012;-78
2022/04/07 02:54:35;;;;;;;;;2.25;1.75;;;;;16.63;64.55;99372.25;5082699;28;61683;-78
2022/04/07 02:57:01;;;;;;;;;3.50;1.00;;;;;16.61;64.17;99367.84;5082999;27;62063;-78
2022/04/07 02:59:27;;;;;;;;;2.00;1.00;;;;;16.65;63.78;99359.88;5083066;28;62036;-78
2022/04/07 03:01:53;;;;;;;;;2.00;1.00;;;;;16.67;63.93;99358.09;5081809;27;62224;-78
2022/04/07 03:04:19;;;;;;;;;1.00;1.00;;;;;16.66;62.84;99348.38;5082781;28;61977;-78
2022/04/07 03:06:45;;;;;;;;;2.25;1.00;;;;;16.70;63.96;99343.97;5083903;27;61758;-78
2022/04/07 03:09:11;;;;;;;;;1.00;1.00;;;;;16.70;63.81;99333.38;5087049;28;61993;-78
2022/04/07 03:11:36;;;;;;;;;0.50;0.50;;;;;16.64;62.08;99333.38;5082772;28;62448;-78
2022/04/07 03:14:02;;;;;;;;;0.75;0.50;;;;;16.66;63.16;99321.00;5082571;28;61944;-78
2022/04/07 03:16:27;;;;;;;;;1.75;1.00;;;;;16.67;62.31;99320.16;5082599;28;62079;-78
2022/04/07 03:18:53;;;;;;;;;3.50;0.75;;;;;16.66;63.15;99310.41;5081433;28;62287;-78
2022/04/07 03:21:18;;;;;;;;;1.00;1.00;;;;;16.67;62.65;99301.59;5080460;28;63708;-78
2022/04/07 03:23:44;;;;;;;;;2.25;1.00;;;;;16.68;62.52;99303.34;5081923;28;61727;-78
2022/04/07 03:26:09;;;;;;;;;1.25;1.00;;;;;16.76;62.91;99302.41;5081312;28;62395;-78
2022/04/07 03:28:35;;;;;;;;;3.00;1.25;;;;;16.78;62.57;99281.22;5082669;28;61729;-78
2022/04/07 03:31:00;;;;;;;;;0.50;0.00;;;;;16.64;62.19;99275.97;5081933;28;62239;-78
2022/04/07 03:33:26;;;;;;;;;0.75;0.75;;;;;16.82;62.38;99268.88;5082036;28;61923;-78
2022/04/07 03:35:51;;;;;;;;;3.00;0.00;;;;;16.79;62.36;99263.53;5082044;28;62065;-78
2022/04/07 03:38:17;;;;;;;;;1.25;1.25;;;;;16.83;63.01;99250.28;5081807;27;62100;-78
2022/04/07 03:40:42;;;;;;;;;1.00;1.00;;;;;16.86;62.38;99241.44;5081455;28;61751;-78
2022/04/07 03:43:08;;;;;;;;;1.50;0.75;;;;;16.85;62.96;99237.03;5082058;28;61890;-78
2022/04/07 03:45:33;;;;;;;;;1.00;1.00;;;;;16.88;63.05;99232.63;5082326;28;61781;-78
2022/04/07 03:47:58;;;;;;;;;2.50;1.00;;;;;16.89;62.96;99214.94;5080938;28;61885;-78
2022/04/07 03:50:24;;;;;;;;;0.50;0.50;;;;;16.89;63.32;99212.28;5081589;28;62587;-78
2022/04/07 03:52:50;;;;;;;;;2.50;1.25;;;;;16.82;63.72;99192.91;5081536;28;61887;-78
2022/04/07 03:55:15;;;;;;;;;2.00;1.00;;;;;16.90;63.56;99196.38;5097651;27;61895;-78
2022/04/07 03:57:41;;;;;;;;;2.75;1.00;;;;;16.89;63.29;99196.38;5080392;28;62129;-78
2022/04/07 04:00:07;;;;;;;;;0.75;0.75;;;;;16.96;63.00;99175.09;5079784;28;63576;-78
2022/04/07 04:02:32;;;;;;;;;1.75;1.75;;;;;16.95;63.26;99170.72;5081693;27;62183;-78
2022/04/07 04:04:58;;;;;;;;;1.00;1.00;;;;;16.96;62.90;99145.06;5081192;28;62425;-79
2022/04/07 04:07:23;;;;;;;;;1.75;1.00;;;;;16.94;62.93;99168.06;5080514;28;61997;-78
2022/04/07 04:09:49;;;;;;;;;1.00;1.00;;;;;16.92;62.23;99167.19;5080456;28;61922;-78
2022/04/07 04:12:14;;;;;;;;;1.00;1.00;;;;;16.93;62.93;99145.13;5080306;28;61769;-78
2022/04/07 04:14:39;;;;;;;;;1.00;1.00;;;;;16.97;62.32;99141.56;5081603;28;61828;-78
2022/04/07 04:17:05;;;;;;;;;0.25;0.25;;;;;17.04;63.66;99147.69;5081454;28;61750;-78
2022/04/07 04:19:32;;;;;;;;;0.00;0.00;;;;;17.01;63.75;99145.94;5079444;28;64629;-78
2022/04/07 04:21:58;;;;;;;;;2.50;1.00;;;;;16.97;63.44;99133.59;5081459;27;62432;-78
2022/04/07 04:24:23;;;;;;;;;0.75;0.00;;;;;17.05;63.35;99144.13;5081388;28;61899;-78
2022/04/07 04:26:49;;;;;;;;;0.25;0.25;;;;;17.07;63.04;99135.25;5081635;28;61849;-78
2022/04/07 04:29:14;;;;;;;;;2.00;0.75;;;;;16.93;62.92;99137.16;5080911;27;62020;-78
2022/04/07 04:31:40;;;;;;;;;1.00;1.00;;;;;16.98;63.15;99135.34;5084662;28;61975;-78
2022/04/07 04:34:05;;;;;;;;;1.00;1.00;;;;;16.97;62.90;99138.91;5084445;28;62057;-78
2022/04/07 04:36:32;;;;;;;;;0.00;0.00;;;;;17.06;63.17;99136.16;5085066;28;61824;-78
2022/04/07 04:38:58;;;;;;;;;1.00;1.00;;;;;17.03;62.83;99130.91;5082184;27;64724;-78
2022/04/07 04:41:23;;;;;;;;;2.00;1.00;;;;;16.99;64.33;99134.47;5083109;28;61663;-78
2022/04/07 04:43:49;;;;;;;;;1.25;0.00;;;;;17.07;63.86;99139.69;5085600;27;61928;-78
2022/04/07 04:46:14;;;;;;;;;0.75;0.00;;;;;17.07;64.63;99131.72;5083745;28;61747;-79
2022/04/07 04:48:39;;;;;;;;;1.00;1.00;;;;;17.06;64.11;99114.09;5084172;27;62019;-78
2022/04/07 04:51:05;;;;;;;;;1.00;1.00;;;;;17.00;63.98;99101.75;5084374;27;61832;-78
2022/04/07 04:53:31;;;;;;;;;0.50;0.50;;;;;16.99;64.21;99107.97;5084369;27;61926;-78
2022/04/07 04:55:56;;;;;;;;;1.00;0.00;;;;;17.08;63.89;99107.88;5084950;27;61849;-78
2022/04/07 04:58:23;;;;;;;;;1.00;1.00;;;;;16.99;63.51;99100.00;5084169;28;62618;-78
2022/04/07 05:00:48;;;;;;;;;0.00;0.00;;;;;16.82;64.09;99099.28;5083145;28;62027;-78
2022/04/07 05:03:14;;;;;;;;;1.25;1.25;;;;;17.02;63.48;99097.31;5084078;27;61992;-79
2022/04/07 05:05:39;;;;;;;;;1.00;1.00;;;;;17.06;63.36;99107.00;5084570;27;61842;-78
2022/04/07 05:08:05;;;;;;;;;1.25;1.25;;;;;17.02;62.86;99094.66;5083239;27;61794;-78
2022/04/07 05:10:31;;;;;;;;;1.00;1.00;;;;;17.06;62.99;99077.84;5084511;28;61872;-78
2022/04/07 05:12:58;;;;;;;;;4.50;2.25;;;;;17.05;62.26;99076.09;5088028;28;62028;-78
2022/04/07 05:15:23;;;;;;;;;4.00;1.00;;;;;17.15;62.23;99077.75;5085085;28;61986;-78
2022/04/07 05:17:53;;;;;;;;;2.00;2.00;;;;;17.13;61.78;99082.19;5099306;27;63575;-78
2022/04/07 05:20:20;;;;;;;;;1.50;1.00;;;;;17.12;61.67;99069.84;5084391;28;62012;-78
2022/04/07 05:22:46;;;;;;;;;1.00;1.00;;;;;17.19;61.48;99078.59;5084345;28;61741;-78
2022/04/07 05:25:12;;;;;;;;;2.00;2.00;;;;;17.23;61.14;99063.56;5100088;27;62112;-78
2022/04/07 05:27:39;;;;;;;;;2.50;1.50;;;;;17.22;61.24;99053.81;5083897;28;61818;-77
2022/04/07 05:30:12;;;;;;;;;3.00;1.00;;;;;17.28;61.03;99059.94;5084130;28;61754;-78
2022/04/07 05:32:38;;;;;;;;;2.00;2.00;;;;;17.32;61.57;99066.09;5074771;28;61885;-76
2022/04/07 05:35:04;;;;;;;;;1.00;1.00;;;;;17.35;62.44;99058.09;5083943;28;61873;-77
2022/04/07 05:37:29;;;;;;;;;1.00;1.00;;;;;17.34;62.28;99053.69;5098202;27;64721;-76
2022/04/07 05:39:55;;;;;;;;;4.50;3.00;;;;;17.37;62.07;99053.66;5082858;28;61947;-76
2022/04/07 05:42:20;;;;;;;;;0.00;0.00;;;;;17.38;61.75;99035.06;5083313;28;61911;-78
2022/04/07 05:44:46;;;;;;;;;4.25;1.00;;;;;17.36;61.99;99036.00;5083283;28;61787;-77
2022/04/07 05:47:11;;;;;;;;;1.25;1.25;;;;;17.40;61.65;99019.16;5082988;27;62738;-76
2022/04/07 05:49:37;;;;;;;;;1.75;0.75;;;;;17.47;61.03;99020.81;5083917;28;61826;-76
2022/04/07 05:52:04;;;;;;;;;0.25;0.25;;;;;17.56;60.50;99014.53;5081892;28;61872;-76
2022/04/07 05:54:33;;;;;;;;;2.00;0.25;;;;;17.47;59.94;99022.59;5087101;27;61800;-76
2022/04/07 05:56:59;;;;;;;;;1.00;0.00;;;;;17.36;60.19;99020.94;5082505;28;62558;-76
2022/04/07 05:59:25;;;;;;;;;1.00;1.00;;;;;17.41;60.06;99020.91;5083355;27;61725;-76
2022/04/07 06:01:50;;;;;;;;;2.50;0.00;;;;;17.41;60.05;99025.31;5083359;27;61820;-76
2022/04/07 06:04:16;;;;;;;;;0.00;0.00;;;;;17.43;59.66;99005.84;5083474;27;61710;-77
2022/04/07 06:06:41;;;;;;;;;1.00;0.00;;;;;17.44;59.44;99023.53;5082408;27;61903;-76
2022/04/07 06:09:07;;;;;;;;;1.25;0.00;;;;;17.54;58.79;99019.84;5082661;27;61715;-78
2022/04/07 06:11:32;;;;;;;;;2.00;0.50;;;;;17.45;58.70;99029.69;5082442;27;61991;-78
2022/04/07 06:13:58;;;;;;;;;0.00;0.00;;;;;17.57;58.51;99000.38;5083357;27;62050;-78
2022/04/07 06:16:23;;;;;;;;;3.00;0.00;;;;;17.59;59.04;99014.50;5082068;27;61832;-78
2022/04/07 06:18:49;;;;;;;;;1.00;0.75;;;;;17.56;60.85;99010.09;5082864;27;62039;-78
2022/04/07 06:21:15;;;;;;;;;2.00;1.00;;;;;17.66;61.90;98999.38;5083627;27;61837;-76
2022/04/07 06:23:40;;;;;;;;;2.50;1.75;;;;;17.47;60.46;99007.56;5083106;27;62426;-76
2022/04/07 06:26:06;;;;;;;;;1.75;1.00;;;;;17.43;60.53;98997.00;5082515;28;61922;-77
2022/04/07 06:28:32;;;;;;;;;3.00;1.00;;;;;17.54;61.01;98997.75;5083097;28;61888;-77
2022/04/07 06:30:57;;;;;;;;;0.25;0.00;;;;;17.55;62.45;98995.09;5083138;28;61877;-77
2022/04/07 06:33:23;;;;;;;;;4.00;0.25;;;;;17.49;63.43;99002.25;5083079;27;62403;-77
2022/04/07 06:35:50;;;;;;;;;1.00;1.00;;;;;17.42;63.34;99005.84;5082786;27;61811;-78
2022/04/07 06:38:15;;;;;;;;;1.00;1.00;;;;;17.37;63.11;98980.28;5088473;27;61975;-81
2022/04/07 06:40:41;;;;;;;;;2.00;0.00;;;;;17.43;63.32;98975.78;5082950;27;61929;-79
2022/04/07 06:43:06;;;;;;;;;2.75;0.75;;;;;17.38;62.54;98983.81;5083302;28;61825;-78
2022/04/07 06:45:31;;;;;;;;;1.00;1.00;;;;;17.34;62.35;98985.63;5082237;27;62751;-78
2022/04/07 06:47:57;;;;;;;;;3.00;1.00;;;;;17.40;62.29;98989.97;5094889;27;61820;-78
2022/04/07 06:50:26;;;;;;;;;2.00;1.00;;;;;17.37;62.25;98982.03;5078634;28;62163;-79
2022/04/07 06:52:53;;;;;;;;;1.00;1.00;;;;;17.60;62.47;98960.53;5082334;27;61911;-80
2022/04/07 06:55:19;;;;;;;;;0.00;0.00;;;;;17.55;61.80;98954.41;5080125;27;62666;-81
2022/04/07 06:57:55;;;;;;;;;0.75;0.00;;;;;17.69;62.01;98971.00;5097158;27;61971;-80
2022/04/07 07:00:24;;;;;;;;;0.75;0.00;;;;;17.68;60.83;98957.78;5081275;27;61828;-80
2022/04/07 07:02:54;;;;;;;;;0.00;0.00;;;;;17.73;60.97;98966.53;5098302;27;62352;-81
2022/04/07 07:05:22;;;;;;;;;0.00;0.00;;;;;17.73;60.84;98971.84;5082221;27;62993;-80
2022/04/07 07:07:47;;;;;;;;;1.00;0.00;;;;;17.76;60.69;98972.69;5082696;27;62115;-80
2022/04/07 07:10:18;;;;;;;;;0.50;0.00;;;;;17.85;60.52;98970.84;5082481;27;61989;-80
2022/04/07 07:12:43;;;;;;;;;0.00;0.00;;;;;17.90;60.05;98958.38;5082711;27;61974;-80
2022/04/07 07:15:09;;;;;;;;;3.00;1.00;;;;;18.01;59.88;98960.88;5082289;27;61970;-80
2022/04/07 07:17:38;;;;;;;;;0.00;0.00;;;;;18.04;59.95;98964.38;5080921;28;61990;-80
2022/04/07 07:20:04;;;;;;;;;0.00;0.00;;;;;18.06;59.70;98957.25;5081383;28;61765;-80
2022/04/07 07:22:30;;;;;;;;;1.00;1.00;;;;;18.08;59.64;98957.22;5082321;27;62107;-80
2022/04/07 07:24:56;;;;;;;;;0.00;0.00;;;;;18.18;59.70;98965.00;5081363;27;61757;-80
2022/04/07 07:27:21;;;;;;;;;0.00;0.00;;;;;18.18;60.04;98953.50;5081752;27;62000;-80
2022/04/07 07:29:47;;;;;;;;;1.50;0.00;;;;;18.29;59.50;98951.56;5098203;27;61834;-80
2022/04/07 07:32:12;;;;;;;;;2.00;0.00;;;;;18.17;59.71;98942.03;5082357;28;61736;-80
2022/04/07 07:34:37;;;;;;;;;1.25;0.00;;;;;18.07;59.99;98951.03;5081348;27;61867;-80
2022/04/07 07:37:03;;;;;;;;;0.00;0.00;;;;;18.08;59.58;98955.44;5081930;27;61754;-80
2022/04/07 07:39:29;;;;;;;;;0.50;0.00;;;;;18.32;59.54;98950.66;5080041;28;62046;-80
2022/04/07 07:41:54;;;;;;;;;1.50;0.50;;;;;18.28;59.56;98944.50;5082109;27;61722;-80
2022/04/07 07:44:19;;;;;;;;;0.50;0.00;;;;;18.39;59.21;98958.47;5080813;27;61829;-81
2022/04/07 07:46:45;;;;;;;;;1.00;0.25;;;;;18.47;58.98;98938.88;5080488;28;61794;-80
2022/04/07 07:49:10;;;;;;;;;0.75;0.75;;;;;18.53;58.70;98931.69;5080668;27;61926;-80
2022/04/07 07:51:37;;;;;;;;;0.00;0.00;;;;;18.72;58.41;98921.59;5081984;27;62073;-80
2022/04/07 07:54:03;;;;;;;;;0.00;0.00;;;;;18.73;58.67;98910.03;5096586;27;64293;-81
2022/04/07 07:56:29;;;;;;;;;0.50;0.00;;;;;18.72;59.51;98924.25;5081551;27;61824;-80
2022/04/07 07:58:54;;;;;;;;;0.00;0.00;;;;;18.82;59.14;98930.28;5081872;27;61990;-81
2022/04/07 08:01:20;;;;;;;;;0.00;0.00;;;;;18.84;59.19;98931.13;5082010;27;61857;-80
2022/04/07 08:03:45;;;;;;;;;0.00;0.00;;;;;18.93;58.16;98940.72;5080864;27;61827;-80
2022/04/07 08:06:10;;;;;;;;;0.00;0.00;;;;;19.09;58.26;98928.88;5083046;28;62157;-81
2022/04/07 08:08:36;;;;;;;;;1.00;0.00;;;;;19.24;57.52;98922.38;5084901;27;61891;-80
2022/04/07 08:11:01;;;;;;;;;0.00;0.00;;;;;19.16;57.59;98917.19;5085201;27;61964;-80
2022/04/07 08:13:27;;;;;;;;;0.00;0.00;;;;;19.33;57.35;98929.28;5082897;28;63731;-81
2022/04/07 08:15:52;;;;;;;;;0.00;0.00;;;;;19.49;58.37;98921.81;5085491;27;61935;-80
2022/04/07 08:18:18;;;;;;;;;0.00;0.00;;;;;19.53;58.01;98918.19;5085343;28;61829;-80
2022/04/07 08:20:44;;;;;;;;;0.00;0.00;;;;;19.48;57.65;98930.75;5118144;27;61763;-80
2022/04/07 08:23:09;;;;;;;;;0.00;0.00;;;;;19.60;57.64;98923.34;5084314;27;61971;-80
2022/04/07 08:25:35;;;;;;;;;0.00;0.00;;;;;19.66;57.48;98917.00;5100359;27;62026;-81
2022/04/07 08:28:00;;;;;;;;;0.00;0.00;;;;;19.63;56.98;98913.56;5085165;27;61927;-81
2022/04/07 08:30:26;;;;;;;;;0.00;0.00;;;;;19.85;56.49;98920.16;5100848;27;61869;-81
2022/04/07 08:32:51;;;;;;;;;1.00;0.00;;;;;19.85;55.56;98919.28;5082873;28;63843;-81
2022/04/07 08:35:16;;;;;;;;;0.00;0.00;;;;;20.11;55.52;98903.53;5100624;27;61943;-80
2022/04/07 08:37:42;;;;;;;;;0.00;0.00;;;;;20.02;55.30;98901.97;5099981;27;61929;-80
2022/04/07 08:40:08;;;;;;;;;0.00;0.00;;;;;20.17;55.09;98907.84;5082716;28;62129;-81
2022/04/07 08:42:35;;;;;;;;;0.00;0.00;;;;;20.35;54.86;98920.72;5084200;27;61899;-81
2022/04/07 08:45:01;;;;;;;;;1.00;0.00;;;;;20.50;54.38;98924.78;5084462;27;61957;-81
2022/04/07 08:47:27;;;;;;;;;0.00;0.00;;;;;20.27;53.54;98906.72;5083354;28;61900;-81
2022/04/07 08:49:53;;;;;;;;;0.00;0.00;;;;;20.56;54.32;98911.25;5085147;27;61941;-81
2022/04/07 08:52:19;;;;;;;;;0.00;0.00;;;;;20.54;53.97;98905.09;5082625;28;63804;-81
2022/04/07 08:54:45;;;;;;;;;0.00;0.00;;;;;20.52;53.76;98892.72;5083646;27;62256;-81
2022/04/07 08:57:11;;;;;;;;;0.00;0.00;;;;;20.60;53.02;98901.44;5084731;27;61698;-81
2022/04/07 08:59:36;;;;;;;;;0.00;0.00;;;;;20.74;52.86;98893.09;5099768;27;61752;-81
2022/04/07 09:02:05;;;;;;;;;0.00;0.00;;;;;20.89;52.64;98903.31;5083723;28;62602;-81
2022/04/07 09:04:36;;;;;;;;;0.25;0.00;;;;;20.95;52.81;98892.47;5084339;27;61941;-81
2022/04/07 09:07:02;;;;;;;;;0.00;0.00;;;;;20.93;52.17;98912.09;5084015;28;61857;-81
2022/04/07 09:09:31;;;;;;;;;0.00;0.00;;;;;20.97;52.52;98909.31;5084007;28;61963;-81
2022/04/07 09:11:57;;;;;;;;;0.00;0.00;;;;;21.01;53.12;98924.28;5082429;28;63859;-81
2022/04/07 09:14:23;;;;;;;;;0.50;0.00;;;;;20.99;53.42;98902.16;5084032;27;61974;-81
2022/04/07 09:16:55;;;;;;;;;0.75;0.00;;;;;21.00;52.49;98909.22;5083003;28;62096;-81
2022/04/07 09:19:24;;;;;;;;;0.00;0.00;;;;;21.06;51.65;98886.84;5083300;28;61889;-81
2022/04/07 09:22:09;;;;;;;;;0.00;0.00;;;;;21.15;51.77;98899.03;5083652;27;62097;-81
2022/04/07 09:24:38;;;;;;;;;0.00;0.00;;;;;21.36;51.51;98917.09;5082115;28;61939;-80
2022/04/07 09:27:08;;;;;;;;;0.00;0.00;;;;;21.19;51.68;98903.38;5084427;27;62010;-81
2022/04/07 09:29:41;;;;;;;;;0.50;0.00;;;;;21.19;51.79;98908.69;5082977;28;61906;-81
2022/04/07 09:32:23;;;;;;;;;0.00;0.00;;;;;21.00;52.23;98917.22;5082138;28;63224;-81
2022/04/07 09:34:59;;;;;;;;;0.75;0.00;;;;;21.15;52.52;98915.03;5083700;28;61996;-81
2022/04/07 09:37:29;;;;;;;;;0.00;0.00;;;;;21.19;51.80;98914.03;5083563;27;61887;-80
2022/04/07 09:40:09;;;;;;;;;0.00;0.00;;;;;21.28;52.25;98921.78;5083430;28;61698;-80
2022/04/07 09:42:36;;;;;;;;;0.00;0.00;;;;;21.45;51.44;98923.97;5062814;28;62889;-80
2022/04/07 09:45:03;;;;;;;;;0.25;0.00;;;;;21.40;51.53;98920.50;5063085;28;61695;-80
2022/04/07 09:47:41;;;;;;;;;0.00;0.00;;;;;21.54;52.42;98944.19;5063572;28;62008;-80
2022/04/07 09:50:10;;;;;;;;;0.00;0.00;;;;;21.46;53.25;98939.06;5063575;28;61858;-80
2022/04/07 09:52:40;;;;;;;;;1.00;0.00;;;;;21.34;54.19;98942.06;5061343;28;63159;-80
2022/04/07 09:55:08;;;;;;;;;0.00;0.00;;;;;21.15;54.27;98955.06;5063027;28;62963;-80
2022/04/07 09:57:35;;;;;;;;;0.00;0.00;;;;;21.29;56.55;98954.66;5063327;28;61944;-81
2022/04/07 10:00:03;;;;;;;;;0.00;0.00;;;;;21.09;57.07;98973.91;5063205;28;62119;-80
2022/04/07 10:02:29;;;;;;;;;0.00;0.00;;;;;21.02;58.59;98974.06;5094809;27;64133;-80
2022/04/07 10:04:56;;;;;;;;;1.00;0.00;;;;;20.55;60.46;99015.28;5062395;28;61977;-81
2022/04/07 10:07:24;;;;;;;;;2.00;0.00;;;;;19.46;67.94;99034.53;5063087;28;61823;-82
2022/04/07 10:09:51;;;;;;;;;0.00;0.00;;;;;18.78;69.57;99022.50;5062778;28;61756;-83
2022/04/07 10:12:18;;;;;;;;;0.00;0.00;;;;;18.63;71.86;99041.34;5062679;28;62864;-81
2022/04/07 10:14:43;;;;;;;;;0.00;0.00;;;;;18.52;70.17;99049.47;5062895;28;61742;-80
2022/04/07 10:17:10;;;;;;;;;0.00;0.00;;;;;18.72;71.84;99049.19;5097571;27;62072;-81
2022/04/07 10:20:16;;;;;;;;;0.00;0.00;;;;;19.00;71.98;99048.69;5063009;28;61803;-82
2022/04/07 10:23:16;;;;;;;;;0.00;0.00;;;;;19.23;68.96;99045.63;5061681;28;61707;-81
2022/04/07 10:25:45;;;;;;;;;0.00;0.00;;;;;19.29;68.38;99065.94;5094617;27;61901;-81
2022/04/07 10:28:11;;;;;;;;;1.00;0.00;;;;;19.10;66.65;99068.91;5066439;28;61771;-78
2022/04/07 10:30:51;;;;;;;;;0.00;0.00;;;;;18.95;65.60;99086.00;5083283;28;61885;-79
2022/04/07 10:33:46;;;;;;;;;0.00;0.00;;;;;18.72;64.73;99085.47;5082620;28;62138;-80
2022/04/07 10:36:23;;;;;;;;;2.00;0.00;;;;;18.96;64.23;99082.47;5108456;27;61956;-79
2022/04/07 10:38:54;;;;;;;;;0.00;0.00;;;;;19.04;63.94;99084.97;5095066;27;61867;-79
2022/04/07 10:41:38;;;;;;;;;0.00;0.00;;;;;18.98;63.73;99099.28;5089621;27;61843;-79
2022/04/07 10:44:25;;;;;;;;;0.00;0.00;;;;;18.65;64.28;99100.66;5081262;28;62047;-79
2022/04/07 10:47:03;;;;;;;;;1.00;1.00;;;;;18.83;63.07;99103.94;5097376;27;61920;-79
2022/04/07 10:49:30;;;;;;;;;0.00;0.00;;;;;18.69;61.79;99109.47;5077623;27;61852;-80
2022/04/07 10:51:59;;;;;;;;;1.00;0.00;;;;;18.91;61.31;99108.25;5080224;28;61939;-80
2022/04/07 10:54:31;;;;;;;;;0.00;0.00;;;;;19.12;60.31;99112.31;5081097;28;62137;-80
2022/04/07 10:57:00;;;;;;;;;0.00;0.00;;;;;19.24;59.59;99107.69;5082138;27;61849;-85
2022/04/07 10:59:27;;;;;;;;;0.50;0.00;;;;;19.29;58.42;99116.47;5082461;28;61786;-78
2022/04/07 11:01:58;;;;;;;;;3.00;0.00;;;;;19.32;57.04;99121.72;5082294;27;61758;-86
2022/04/07 11:04:24;;;;;;;;;2.00;0.25;;;;;19.35;57.86;99127.00;5079997;28;63460;-83
2022/04/07 11:07:04;;;;;;;;;3.25;1.50;;;;;19.42;58.01;99131.31;5081750;27;61804;-85
2022/04/07 11:10:00;;;;;;;;;3.00;1.50;;;;;19.65;57.57;99116.69;5081187;28;61962;-86
2022/04/07 11:12:35;;;;;;;;;1.50;0.00;;;;;19.41;55.97;99130.44;5098251;27;62071;-85
2022/04/07 11:15:03;;;;;;;;;0.00;0.00;;;;;19.81;55.69;99131.47;5081490;28;61989;-85
2022/04/07 11:17:44;;;;;;;;;0.00;0.00;;;;;19.93;56.18;99133.03;5097681;27;61746;-85
2022/04/07 11:20:23;;;;;;;;;0.00;0.00;;;;;20.16;53.76;99138.75;5097059;27;61974;-86
2022/04/07 11:22:55;;;;;;;;;0.75;0.00;;;;;20.42;52.62;99143.50;5081571;27;61859;-86
2022/04/07 11:25:29;;;;;;;;;1.00;0.00;;;;;20.40;52.12;99156.00;5096175;27;63822;-87
2022/04/07 11:28:15;;;;;;;;;0.00;0.00;;;;;20.61;52.21;99162.69;5095604;27;61954;-82
2022/04/07 11:30:51;;;;;;;;;1.75;0.00;;;;;20.45;51.00;99163.03;5080987;28;62067;-86
2022/04/07 11:33:28;;;;;;;;;1.00;0.00;;;;;20.47;49.19;99179.84;5082071;28;61857;-85
2022/04/07 11:36:05;;;;;;;;;0.00;0.00;;;;;20.29;49.00;99165.13;5097952;27;65071;-84